Time;durP1;ratioP1;P1;durP2;ratioP2;P2;SDS_P1;SDS_P2;PMS_P1;PMS_P2;Temp;Humidity;BMP_temperature;BMP_pressure;BME280_temperature;BME280_humidity;BME280_pressure;Samples;Min_cycle;Max_cycle;Signal;HPM_P1;HPM_P2
2023/07/14 07:08:25;;;;;;;18.10;6.50;;;;;;;25.70;69.68;98699.40;82706;1298;3011285;-66
2023/07/14 07:10:52;;;;;;;10.50;5.50;;;;;;;25.49;69.18;98706.91;81693;1300;3012755;-73
2023/07/14 07:13:18;;;;;;;10.70;5.90;;;;;;;25.53;68.42;98689.90;81365;1301;3011374;-68
2023/07/14 07:15:47;;;;;;;11.60;6.10;;;;;;;25.46;69.32;98695.61;78479;1304;3025190;-69
2023/07/14 07:18:13;;;;;;;9.30;6.00;;;;;;;25.68;69.08;98696.63;80754;1300;3012822;-70
2023/07/14 07:20:41;;;;;;;13.40;6.50;;;;;;;25.77;68.60;98689.27;77569;1298;5819272;-67
2023/07/14 07:23:09;;;;;;;11.40;5.20;;;;;;;25.77;68.07;98687.38;78259;1298;3050003;-69
2023/07/14 07:25:36;;;;;;;11.20;5.40;;;;;;;25.76;67.68;98680.84;79449;1304;3013737;-69
2023/07/14 07:28:03;;;;;;;11.80;6.30;;;;;;;25.58;67.11;98683.45;79335;1304;3012824;-68
2023/07/14 07:30:31;;;;;;;13.90;6.20;;;;;;;25.59;68.38;98672.20;78071;1298;3026254;-66
2023/07/14 07:32:59;;;;;;;12.50;6.40;;;;;;;25.53;68.97;98674.98;79514;1298;3013210;-66
2023/07/14 07:35:26;;;;;;;12.10;5.90;;;;;;;25.48;69.09;98681.10;79446;1297;3011675;-70
2023/07/14 07:37:54;;;;;;;15.70;7.30;;;;;;;25.24;69.99;98678.08;78140;1302;3049574;-67
2023/07/14 07:40:21;;;;;;;14.00;6.20;;;;;;;25.19;70.80;98671.42;79509;1298;3013587;-69
2023/07/14 07:42:47;;;;;;;16.70;5.10;;;;;;;25.40;70.55;98666.21;79500;1302;3011665;-71
2023/07/14 07:45:16;;;;;;;10.10;5.30;;;;;;;26.34;67.64;98667.09;78188;1303;3025996;-73
2023/07/14 07:47:45;;;;;;;12.20;5.50;;;;;;;26.60;65.73;98663.85;79410;1297;3013276;-69
2023/07/14 07:50:14;;;;;;;15.00;7.20;;;;;;;26.50;66.38;98656.30;79068;1295;3011791;-71
2023/07/14 07:52:41;;;;;;;20.30;11.10;;;;;;;26.54;66.91;98652.45;79616;1295;3013133;-72
2023/07/14 07:55:07;;;;;;;18.80;8.20;;;;;;;26.59;66.10;98653.87;79486;1295;3011344;-72
2023/07/14 07:57:35;;;;;;;14.70;7.20;;;;;;;26.46;65.49;98651.67;78294;1299;3027487;-70
2023/07/14 08:00:04;;;;;;;11.90;6.20;;;;;;;26.53;64.66;98666.89;79459;1300;3020467;-73
2023/07/14 08:02:41;;;;;;;13.70;5.70;;;;;;;26.46;63.70;98667.80;78262;1298;3069827;-73
2023/07/14 08:05:11;;;;;;;11.90;6.50;;;;;;;26.42;63.60;98671.91;79478;1294;3013848;-70
2023/07/14 08:07:39;;;;;;;15.00;7.00;;;;;;;26.36;64.53;98662.63;78260;1300;3048952;-71
2023/07/14 08:10:07;;;;;;;11.00;5.90;;;;;;;26.42;65.04;98662.05;79771;1298;3013851;-68
2023/07/14 08:12:33;;;;;;;15.00;6.60;;;;;;;26.47;64.92;98649.92;79434;1300;3011842;-70
2023/07/14 08:15:02;;;;;;;13.30;6.50;;;;;;;26.62;65.08;98655.27;78326;1297;3053775;-69
2023/07/14 08:17:31;;;;;;;11.30;6.80;;;;;;;26.71;64.62;98654.59;79584;1300;3013301;-70
2023/07/14 08:20:00;;;;;;;10.50;6.00;;;;;;;26.85;64.87;98652.98;79075;1300;3013028;-69
2023/07/14 08:22:27;;;;;;;9.60;5.80;;;;;;;26.91;64.91;98647.24;79433;1299;3013649;-72
2023/07/14 08:24:55;;;;;;;13.70;7.40;;;;;;;27.02;65.34;98647.26;79455;1295;3013739;-69
2023/07/14 08:27:24;;;;;;;13.10;6.70;;;;;;;27.03;65.83;98645.75;78214;1295;3051302;-73
2023/07/14 08:29:53;;;;;;;13.50;7.30;;;;;;;26.96;65.96;98649.82;79460;1300;3013169;-69
2023/07/14 08:32:21;;;;;;;15.10;6.80;;;;;;;27.12;65.35;98643.34;78193;1295;3069365;-70
2023/07/14 08:34:48;;;;;;;13.30;7.20;;;;;;;27.35;64.73;98634.23;79516;1295;3013496;-69
2023/07/14 08:37:15;;;;;;;11.10;6.60;;;;;;;27.47;64.49;98635.70;79409;1300;3013186;-72
2023/07/14 08:39:43;;;;;;;12.90;6.70;;;;;;;27.56;64.12;98639.96;78220;1300;3025698;-71
2023/07/14 08:42:38;;;;;;;15.40;6.50;;;;;;;27.58;64.22;98633.88;79460;1300;3018635;-70
2023/07/14 08:45:27;;;;;;;13.50;7.10;;;;;;;27.67;63.00;98635.36;78375;1299;3052603;-72
2023/07/14 08:48:21;;;;;;;12.50;8.00;;;;;;;27.47;62.93;98640.59;78301;1295;3068580;-66
2023/07/14 08:50:50;;;;;;;14.40;8.10;;;;;;;27.33;62.83;98634.45;78250;1300;3052180;-71
2023/07/14 08:53:22;;;;;;;13.00;9.00;;;;;;;27.40;62.81;98624.85;79534;1297;3013860;-69
2023/07/14 08:55:49;;;;;;;13.00;6.60;;;;;;;27.43;62.61;98633.09;78123;1295;3049538;-67
2023/07/14 08:58:19;;;;;;;13.70;6.60;;;;;;;27.52;61.25;98631.09;79435;1295;3019277;-75
2023/07/14 09:00:49;;;;;;;14.20;6.80;;;;;;;27.48;61.17;98628.00;78998;1295;3011987;-73
2023/07/14 09:03:17;;;;;;;12.70;7.60;;;;;;;27.64;61.44;98609.38;79471;1300;3020636;-71
2023/07/14 09:05:52;;;;;;;12.00;6.80;;;;;;;27.89;61.02;98600.65;79465;1300;3011537;-72
2023/07/14 09:08:29;;;;;;;10.90;6.70;;;;;;;27.88;60.94;98609.21;78189;1295;3051972;-71
2023/07/14 09:11:19;;;;;;;12.50;7.00;;;;;;;27.87;60.80;98603.62;78340;1295;3057725;-72
2023/07/14 09:14:12;;;;;;;11.50;6.50;;;;;;;27.83;60.81;98604.70;78237;1295;3050053;-72
2023/07/14 09:16:53;;;;;;;11.20;6.90;;;;;;;27.85;61.23;98588.94;78357;1301;3053598;-71
2023/07/14 09:19:49;;;;;;;14.00;6.70;;;;;;;27.90;61.38;98588.42;78323;1300;3050677;-72
2023/07/14 09:22:56;;;;;;;14.60;6.90;;;;;;;27.96;60.36;98585.52;78377;1300;3052693;-73
2023/07/14 09:25:53;;;;;;;11.30;6.70;;;;;;;27.92;60.63;98590.33;78243;1300;3053042;-72
2023/07/14 09:28:33;;;;;;;16.00;7.30;;;;;;;27.84;61.66;98578.38;78210;1301;3070457;-70
2023/07/14 09:31:05;;;;;;;13.10;8.20;;;;;;;27.81;63.49;98572.85;78168;1304;3050555;-72
2023/07/14 09:33:44;;;;;;;14.60;8.40;;;;;;;27.73;63.90;98567.51;79601;1299;3011749;-71
2023/07/14 09:36:12;;;;;;;11.40;7.80;;;;;;;27.98;63.63;98556.64;78131;1300;3049917;-71
2023/07/14 09:38:47;;;;;;;13.90;7.20;;;;;;;28.04;63.08;98557.30;79473;1300;3018562;-73
2023/07/14 09:41:16;;;;;;;10.80;7.30;;;;;;;28.20;62.87;98549.63;78277;1300;3052816;-72
2023/07/14 09:43:44;;;;;;;10.70;7.60;;;;;;;28.20;61.83;98554.54;79447;1300;3013521;-74
2023/07/14 09:46:13;;;;;;;14.50;8.60;;;;;;;28.40;62.41;98551.58;79455;1295;3011651;-72
2023/07/14 09:48:46;;;;;;;13.30;8.20;;;;;;;28.56;62.12;98548.00;78318;1295;3055220;-72
2023/07/14 09:51:16;;;;;;;19.60;8.10;;;;;;;28.69;61.56;98542.11;79427;1300;3011911;-69
2023/07/14 09:53:59;;;;;;;13.60;7.80;;;;;;;28.93;60.70;98534.30;78268;1300;3053955;-72
2023/07/14 09:56:42;;;;;;;15.50;7.30;;;;;;;28.98;59.50;98545.00;78253;1299;3051362;-70
2023/07/14 09:59:22;;;;;;;13.90;6.70;;;;;;;29.06;58.84;98535.16;78271;1300;3053014;-72
2023/07/14 10:01:51;;;;;;;13.20;8.10;;;;;;;29.01;57.60;98536.79;78160;1300;3053682;-72
2023/07/14 10:04:18;;;;;;;10.80;6.70;;;;;;;29.05;57.51;98536.59;79514;1300;3013298;-65
2023/07/14 10:06:49;;;;;;;13.20;7.50;;;;;;;28.94;58.23;98530.73;79456;1300;3013063;-70
2023/07/14 10:09:20;;;;;;;11.90;7.10;;;;;;;28.93;59.07;98531.80;78308;1301;3048796;-73
2023/07/14 10:11:48;;;;;;;11.70;7.20;;;;;;;28.83;59.52;98518.17;79480;1300;3011502;-74
2023/07/14 10:14:36;;;;;;;11.10;7.10;;;;;;;29.03;59.19;98512.33;78456;1300;3051136;-72
2023/07/14 10:17:04;;;;;;;13.00;6.90;;;;;;;29.20;57.82;98524.34;78251;1300;3053852;-76
2023/07/14 10:19:38;;;;;;;14.70;6.80;;;;;;;29.38;56.74;98507.02;79905;1300;3014190;-70
2023/07/14 10:22:09;;;;;;;11.50;7.00;;;;;;;29.22;57.31;98503.29;78174;1294;3049357;-73
2023/07/14 10:24:37;;;;;;;13.70;6.40;;;;;;;29.19;56.74;98508.41;79415;1294;3013325;-71
2023/07/14 10:27:15;;;;;;;12.30;6.20;;;;;;;29.40;56.65;98507.69;78327;1296;3026857;-65
2023/07/14 10:29:51;;;;;;;11.00;6.30;;;;;;;29.51;56.25;98498.48;78193;1295;3054192;-63
2023/07/14 10:32:34;;;;;;;10.50;6.50;;;;;;;29.46;55.97;98502.66;78297;1300;3051265;-67
2023/07/14 10:35:37;;;;;;;13.30;6.40;;;;;;;29.27;55.93;98500.37;78254;1299;3054180;-65
2023/07/14 10:38:22;;;;;;;11.00;6.20;;;;;;;29.13;56.76;98511.57;77789;1306;3052938;-65
2023/07/14 10:41:01;;;;;;;9.90;6.60;;;;;;;29.11;56.80;98515.96;78299;1300;3068813;-66
2023/07/14 10:43:44;;;;;;;11.80;6.70;;;;;;;28.82;57.57;98511.45;78126;1301;3051214;-64
2023/07/14 10:46:34;;;;;;;11.20;7.30;;;;;;;28.78;57.71;98505.35;78228;1300;3057202;-66
2023/07/14 10:49:11;;;;;;;15.10;7.90;;;;;;;28.61;57.78;98510.46;78321;1301;3049709;-67
2023/07/14 10:51:49;;;;;;;15.20;6.80;;;;;;;28.48;57.91;98502.85;78303;1296;3054450;-64
2023/07/14 10:54:33;;;;;;;15.50;7.90;;;;;;;28.43;58.05;98500.08;78137;1300;3050240;-67
2023/07/14 10:57:08;;;;;;;11.90;6.30;;;;;;;28.19;60.53;98504.04;78216;1300;3051762;-66
2023/07/14 10:59:52;;;;;;;16.60;7.20;;;;;;;27.93;61.72;98523.15;78450;1300;3052872;-66
2023/07/14 11:02:24;;;;;;;15.00;8.20;;;;;;;27.60;63.16;98527.52;78286;1302;3069839;-68
2023/07/14 11:04:54;;;;;;;19.10;8.00;;;;;;;27.26;65.99;98531.64;79605;1300;3013148;-65
2023/07/14 11:07:30;;;;;;;13.00;7.40;;;;;;;27.08;67.35;98537.09;78232;1300;3056332;-65
2023/07/14 11:09:58;;;;;;;11.20;6.50;;;;;;;26.91;68.26;98543.23;78167;1300;3048509;-66
2023/07/14 11:12:29;;;;;;;12.70;6.90;;;;;;;26.49;70.04;98538.80;79511;1295;3013050;-66
2023/07/14 11:15:32;;;;;;;14.50;6.70;;;;;;;26.32;71.81;98545.94;78243;1300;3052961;-65
2023/07/14 11:18:07;;;;;;;6.00;3.50;;;;;;;26.40;70.20;98526.31;78460;1298;3053081;-65
2023/07/14 11:21:03;;;;;;;7.60;3.80;;;;;;;27.27;66.38;98508.33;78025;1303;3069169;-63
2023/07/14 11:23:50;;;;;;;5.10;2.80;;;;;;;28.13;61.92;98506.19;78072;1295;3051806;-66
2023/07/14 11:26:45;;;;;;;7.60;3.50;;;;;;;28.42;59.88;98484.82;78313;1300;3057106;-68
2023/07/14 11:29:16;;;;;;;9.60;4.30;;;;;;;28.40;59.84;98466.57;78140;1298;3050250;-65
2023/07/14 11:31:45;;;;;;;9.30;5.30;;;;;;;28.62;59.31;98446.08;79560;1301;3011679;-63
2023/07/14 11:34:22;;;;;;;9.20;4.90;;;;;;;28.48;59.21;98442.39;78281;1300;3050415;-64
2023/07/14 11:37:29;;;;;;;10.00;4.70;;;;;;;28.50;59.09;98451.35;78268;1301;3053493;-64
2023/07/14 11:39:57;;;;;;;10.40;6.40;;;;;;;28.32;59.73;98461.63;78165;1299;3054196;-66
2023/07/14 11:42:32;;;;;;;15.40;7.30;;;;;;;27.97;61.50;98466.84;79501;1298;3013443;-65
2023/07/14 11:45:01;;;;;;;11.30;8.30;;;;;;;27.36;64.56;98464.13;78400;1300;3057132;-62
2023/07/14 11:47:36;;;;;;;17.00;9.40;;;;;;;27.02;65.82;98480.22;79618;1295;3013459;-64
2023/07/14 11:50:17;;;;;;;14.50;9.20;;;;;;;26.41;68.41;98496.31;78237;1301;3052732;-66
2023/07/14 11:53:11;;;;;;;15.90;9.00;;;;;;;26.13;69.83;98495.43;78355;1298;3050448;-64
2023/07/14 11:55:40;;;;;;;13.40;8.90;;;;;;;25.80;71.59;98495.92;78287;1298;3051156;-66
2023/07/14 11:58:30;;;;;;;12.60;8.50;;;;;;;25.67;73.12;98505.14;79569;1298;3013553;-65
2023/07/14 12:01:03;;;;;;;12.70;7.10;;;;;;;25.61;74.75;98501.02;78403;1295;3052763;-65
2023/07/14 12:03:38;;;;;;;10.50;7.80;;;;;;;25.97;72.26;98511.52;79566;1298;3011727;-67
2023/07/14 12:06:18;;;;;;;11.30;8.30;;;;;;;26.08;72.03;98509.77;78389;1298;3049773;-63
2023/07/14 12:09:04;;;;;;;15.90;7.40;;;;;;;26.15;71.72;98508.07;78207;1301;3053882;-64
2023/07/14 12:11:38;;;;;;;11.00;8.50;;;;;;;25.88;72.37;98503.21;78312;1301;3050286;-65
2023/07/14 12:14:36;;;;;;;13.90;8.00;;;;;;;25.90;72.88;98505.84;79466;1301;3011609;-66
2023/07/14 12:17:05;;;;;;;9.20;7.20;;;;;;;25.86;72.35;98511.58;77987;1301;3054740;-64
2023/07/14 12:19:54;;;;;;;13.00;7.50;;;;;;;25.60;71.09;98514.69;79288;1297;3013952;-65
2023/07/14 12:22:41;;;;;;;14.40;9.00;;;;;;;25.61;69.46;98515.01;78463;1300;3056554;-67
2023/07/14 12:25:15;;;;;;;10.80;6.80;;;;;;;25.73;69.50;98517.31;78318;1298;3051048;-67
2023/07/14 12:27:52;;;;;;;7.70;5.40;;;;;;;25.99;68.81;98514.48;79721;1298;3012098;-64
2023/07/14 12:30:28;;;;;;;6.40;5.60;;;;;;;25.88;68.06;98514.65;78602;1296;3050086;-65
2023/07/14 12:33:03;;;;;;;10.50;6.00;;;;;;;25.53;69.27;98524.84;78389;1299;3050522;-67
2023/07/14 12:35:32;;;;;;;9.30;5.70;;;;;;;25.18;70.09;98535.97;78509;1298;3052297;-65
2023/07/14 12:38:09;;;;;;;7.00;5.20;;;;;;;25.21;69.06;98528.81;79804;1298;3014775;-66
2023/07/14 12:40:37;;;;;;;8.50;4.90;;;;;;;25.19;67.37;98546.10;78612;1298;3055627;-67
2023/07/14 12:43:06;;;;;;;8.60;4.70;;;;;;;25.12;67.27;98546.13;79551;1301;3013672;-62
2023/07/14 12:45:33;;;;;;;8.30;3.90;;;;;;;25.14;66.98;98546.45;79454;1301;3013436;-64
2023/07/14 12:48:02;;;;;;;5.00;3.50;;;;;;;25.39;65.84;98542.39;78174;1309;3051952;-63
2023/07/14 12:50:29;;;;;;;5.70;3.40;;;;;;;25.32;65.34;98547.52;79461;1300;3013092;-63
2023/07/14 12:52:55;;;;;;;5.20;3.60;;;;;;;25.15;64.96;98541.52;79512;1301;3011721;-62
2023/07/14 12:55:26;;;;;;;5.10;3.20;;;;;;;25.16;64.92;98545.95;78413;1300;3055189;-63
2023/07/14 12:57:53;;;;;;;6.50;3.20;;;;;;;25.09;65.21;98547.61;79445;1300;3011896;-63
2023/07/14 13:00:27;;;;;;;3.10;2.60;;;;;;;25.17;64.76;98538.98;79059;1300;3012091;-62
2023/07/14 13:02:54;;;;;;;4.40;2.60;;;;;;;25.41;64.73;98535.92;79481;1298;3013037;-62
2023/07/14 13:05:23;;;;;;;4.90;2.80;;;;;;;25.63;63.58;98537.55;78605;1304;3053174;-61
2023/07/14 13:07:52;;;;;;;2.70;2.20;;;;;;;25.81;62.93;98532.58;79698;1305;3013514;-66
2023/07/14 13:10:39;;;;;;;3.10;2.60;;;;;;;25.92;62.46;98538.33;78459;1296;3025940;-69
2023/07/14 13:13:13;;;;;;;3.80;2.50;;;;;;;26.23;61.85;98547.20;78417;1308;3052437;-68
2023/07/14 13:15:39;;;;;;;3.90;2.80;;;;;;;26.20;61.95;98545.06;79643;1296;3013816;-67
2023/07/14 13:18:18;;;;;;;7.00;2.60;;;;;;;26.23;62.08;98550.77;78401;1300;3049010;-67
2023/07/14 13:20:46;;;;;;;7.20;2.90;;;;;;;26.22;62.25;98543.23;80700;1295;3053854;-64
2023/07/14 13:23:19;;;;;;;6.00;2.70;;;;;;;26.12;62.81;98545.32;80630;1296;3012830;-64
2023/07/14 13:26:05;;;;;;;5.50;2.60;;;;;;;26.11;62.95;98530.71;78867;1308;3052289;-64
2023/07/14 13:28:58;;;;;;;10.00;3.00;;;;;;;26.21;63.24;98534.21;78492;1298;3067765;-62
2023/07/14 13:31:29;;;;;;;6.80;5.10;;;;;;;26.36;63.28;98541.92;78196;1300;3051036;-64
2023/07/14 13:33:58;;;;;;;5.00;3.20;;;;;;;26.81;62.11;98545.05;79459;1296;3013365;-63
2023/07/14 13:36:27;;;;;;;6.70;2.70;;;;;;;27.11;60.88;98549.76;78419;1308;3048984;-64
2023/07/14 13:38:55;;;;;;;4.20;2.60;;;;;;;26.82;61.42;98547.66;79604;1295;3011633;-64
2023/07/14 13:41:27;;;;;;;6.20;2.50;;;;;;;26.56;62.26;98551.42;78875;1298;3011668;-63
2023/07/14 13:44:32;;;;;;;5.00;2.90;;;;;;;26.29;63.24;98548.52;79471;1298;3011681;-64
2023/07/14 13:47:06;;;;;;;5.20;2.90;;;;;;;26.26;63.21;98554.41;78450;1295;3052861;-62
2023/07/14 13:49:35;;;;;;;4.30;3.00;;;;;;;26.32;62.79;98551.47;78817;1298;3011840;-63
2023/07/14 13:52:05;;;;;;;5.90;4.10;;;;;;;26.63;61.19;98563.55;79629;1296;3013219;-70
2023/07/14 13:54:38;;;;;;;9.90;5.30;;;;;;;26.53;60.63;98557.34;78491;1295;3056412;-67
2023/07/14 13:57:08;;;;;;;11.80;6.40;;;;;;;26.65;60.79;98553.59;79726;1295;3011711;-68
2023/07/14 13:59:38;;;;;;;11.70;6.10;;;;;;;26.73;60.26;98554.79;78340;1296;3052046;-70
2023/07/14 14:02:31;;;;;;;12.20;8.10;;;;;;;26.69;60.24;98554.33;79649;1294;3013729;-65
2023/07/14 14:04:59;;;;;;;7.40;5.00;;;;;;;26.70;60.16;98554.39;78208;1308;3054171;-69
2023/07/14 14:07:26;;;;;;;7.00;3.80;;;;;;;26.93;59.08;98553.46;79622;1295;3013142;-66
2023/07/14 14:09:53;;;;;;;5.40;3.30;;;;;;;27.07;58.21;98552.33;79497;1296;3012735;-66
2023/07/14 14:12:21;;;;;;;6.00;2.50;;;;;;;27.01;57.90;98558.40;78249;1295;3026530;-66
2023/07/14 14:14:50;;;;;;;4.60;3.00;;;;;;;26.85;56.92;98566.09;79543;1295;3011781;-70
2023/07/14 14:17:34;;;;;;;9.80;4.00;;;;;;;26.53;57.39;98563.48;78275;1300;3028569;-66
2023/07/14 14:20:04;;;;;;;5.60;4.10;;;;;;;26.57;57.64;98562.80;78324;1301;3052836;-64
2023/07/14 14:22:32;;;;;;;9.50;3.60;;;;;;;26.52;57.60;98561.89;79471;1301;3015581;-66
2023/07/14 14:24:59;;;;;;;4.00;2.90;;;;;;;26.54;57.72;98574.48;79744;1299;3011756;-64
2023/07/14 14:27:27;;;;;;;5.60;2.90;;;;;;;26.62;57.95;98577.86;78232;1300;3057167;-68
2023/07/14 14:29:55;;;;;;;4.80;3.50;;;;;;;26.69;57.71;98585.98;79615;1295;3013222;-70
2023/07/14 14:32:23;;;;;;;5.70;3.90;;;;;;;26.75;57.57;98592.19;79566;1302;3011546;-69
2023/07/14 14:34:53;;;;;;;5.20;3.80;;;;;;;26.72;57.65;98585.58;78465;1298;3051970;-66
2023/07/14 14:37:19;;;;;;;5.80;3.80;;;;;;;26.46;58.55;98587.91;79748;1300;3011385;-68
2023/07/14 14:39:46;;;;;;;8.20;3.40;;;;;;;26.49;58.51;98587.81;79536;1298;3011407;-67
2023/07/14 14:42:15;;;;;;;4.10;2.80;;;;;;;26.11;59.42;98595.00;78309;1298;3055950;-68
2023/07/14 14:44:41;;;;;;;6.60;4.00;;;;;;;25.74;60.64;98601.77;79728;1298;3013009;-65
2023/07/14 14:47:13;;;;;;;5.20;3.00;;;;;;;25.61;62.41;98605.40;79533;1294;3011910;-67
2023/07/14 14:49:41;;;;;;;3.20;2.30;;;;;;;25.45;64.24;98606.69;78424;1300;3053260;-66
2023/07/14 14:52:08;;;;;;;7.40;3.90;;;;;;;25.03;66.28;98612.97;79695;1295;3013100;-67
2023/07/14 14:54:36;;;;;;;6.90;3.90;;;;;;;24.90;66.75;98607.61;79497;1298;3013464;-68
2023/07/14 14:57:07;;;;;;;4.00;3.10;;;;;;;24.79;67.81;98621.77;78362;1295;3058079;-66
2023/07/14 14:59:35;;;;;;;6.50;3.30;;;;;;;24.53;69.18;98623.14;79527;1294;3013200;-67
2023/07/14 15:02:03;;;;;;;5.80;3.00;;;;;;;24.52;69.28;98628.11;79498;1295;3013474;-65
2023/07/14 15:04:34;;;;;;;5.60;3.20;;;;;;;24.52;69.64;98626.09;78484;1295;3054049;-67
2023/07/14 15:07:00;;;;;;;4.50;3.40;;;;;;;24.54;68.83;98626.52;79560;1301;3012856;-65
2023/07/14 15:09:29;;;;;;;4.40;3.40;;;;;;;24.63;67.42;98631.09;78249;1298;3026738;-66
2023/07/14 15:11:56;;;;;;;5.00;3.10;;;;;;;24.63;67.04;98640.10;79476;1295;3014039;-66
2023/07/14 15:14:31;;;;;;;3.80;2.80;;;;;;;24.57;67.45;98640.60;79522;1294;3011586;-67
2023/07/14 15:17:00;;;;;;;4.40;3.40;;;;;;;24.48;66.67;98642.50;78248;1295;3054295;-66
2023/07/14 15:19:29;;;;;;;5.70;3.20;;;;;;;24.27;63.21;98655.11;79596;1298;3013207;-69
2023/07/14 15:21:58;;;;;;;4.00;3.00;;;;;;;24.14;62.90;98661.71;79047;1299;3011721;-65
2023/07/14 15:24:25;;;;;;;6.70;3.50;;;;;;;23.94;63.36;98651.69;79520;1294;3013120;-65
2023/07/14 15:26:52;;;;;;;5.10;3.80;;;;;;;23.97;63.82;98652.36;79461;1295;3011542;-69
2023/07/14 15:29:20;;;;;;;9.30;3.30;;;;;;;23.80;64.20;98664.09;78222;1298;3026297;-68
2023/07/14 15:31:47;;;;;;;8.40;3.80;;;;;;;23.90;64.28;98651.84;79725;1294;3012937;-64
2023/07/14 15:34:14;;;;;;;5.40;3.90;;;;;;;23.84;64.66;98659.00;79423;1298;3011911;-66
2023/07/14 15:36:42;;;;;;;5.00;3.70;;;;;;;24.02;64.32;98655.64;78393;1301;3052786;-66
2023/07/14 15:39:14;;;;;;;5.40;4.20;;;;;;;24.08;64.17;98665.86;79498;1295;3013308;-66
2023/07/14 15:41:43;;;;;;;6.20;3.60;;;;;;;24.20;64.10;98672.10;78230;1300;3052578;-67
2023/07/14 15:44:14;;;;;;;5.40;3.90;;;;;;;24.24;64.12;98687.06;79690;1294;3012566;-65
2023/07/14 15:46:42;;;;;;;4.00;3.50;;;;;;;24.21;64.46;98687.80;78307;1295;3053403;-71
2023/07/14 15:49:14;;;;;;;5.00;3.80;;;;;;;24.26;64.65;98688.89;79611;1295;3019330;-63
2023/07/14 15:51:43;;;;;;;5.50;4.10;;;;;;;24.30;64.72;98692.65;78086;1301;3053622;-65
2023/07/14 15:54:30;;;;;;;5.90;4.40;;;;;;;24.62;63.92;98695.08;79486;1297;3012955;-64
2023/07/14 15:57:03;;;;;;;5.60;4.00;;;;;;;24.72;63.65;98693.29;78389;1297;3053577;-63
2023/07/14 15:59:29;;;;;;;4.70;4.20;;;;;;;24.53;64.41;98700.20;79385;1297;3011652;-65
2023/07/14 16:01:57;;;;;;;9.20;4.20;;;;;;;24.62;64.46;98703.34;78428;1295;3048523;-66
2023/07/14 16:04:24;;;;;;;5.50;4.40;;;;;;;25.02;63.28;98713.79;79368;1295;3013630;-65
2023/07/14 16:06:52;;;;;;;5.30;4.80;;;;;;;25.16;62.80;98713.55;79341;1295;3012770;-64
2023/07/14 16:09:26;;;;;;;8.00;4.60;;;;;;;25.39;61.62;98716.89;78250;1297;3054195;-63
2023/07/14 16:11:53;;;;;;;6.10;4.50;;;;;;;25.22;61.33;98716.92;79525;1295;3013892;-64
2023/07/14 16:14:21;;;;;;;6.60;4.00;;;;;;;24.78;62.38;98723.52;78488;1297;3050801;-65
2023/07/14 16:16:48;;;;;;;7.70;4.70;;;;;;;24.53;62.88;98724.90;79607;1295;3012853;-65
2023/07/14 16:19:15;;;;;;;5.40;4.30;;;;;;;24.32;63.74;98731.44;79635;1295;3013592;-64
2023/07/14 16:21:48;;;;;;;5.80;4.70;;;;;;;24.13;64.83;98734.04;78355;1297;3050138;-62
2023/07/14 16:24:16;;;;;;;;;;;;;;;24.05;65.22;98740.96;79506;1294;3012503;-64
2023/07/14 16:26:44;;;;;;;5.10;4.40;;;;;;;24.04;65.33;98746.45;78304;1297;3052259;-62
2023/07/14 16:29:12;;;;;;;8.30;4.80;;;;;;;23.76;65.85;98742.91;79546;1295;3013597;-64
2023/07/14 16:31:40;;;;;;;6.20;4.30;;;;;;;23.80;65.72;98738.06;79432;1294;3011794;-62
2023/07/14 16:34:09;;;;;;;8.50;4.20;;;;;;;23.79;65.57;98748.16;78197;1297;3050341;-62
2023/07/14 16:36:35;;;;;;;5.30;4.20;;;;;;;23.72;65.53;98751.63;79934;1295;3013112;-70
2023/07/14 16:39:12;;;;;;;9.00;4.80;;;;;;;23.62;65.01;98754.48;79488;1298;3011583;-70
2023/07/14 16:41:40;;;;;;;6.50;4.20;;;;;;;23.40;65.74;98773.15;78172;1296;3052453;-67
2023/07/14 16:44:14;;;;;;;5.20;4.50;;;;;;;23.40;65.78;98760.49;79566;1298;3012827;-66
2023/07/14 16:46:48;;;;;;;;;;;;;;;23.46;65.63;98757.68;78430;1294;3056463;-65
2023/07/14 16:49:18;;;;;;;9.90;4.40;;;;;;;23.41;65.84;98763.23;79149;1299;3011755;-63
2023/07/14 16:51:48;;;;;;;5.60;4.20;;;;;;;23.51;65.50;98765.00;79624;1295;3015835;-66
2023/07/14 16:54:18;;;;;;;4.90;4.00;;;;;;;23.49;65.53;98762.06;79682;1295;3050755;-66
2023/07/14 16:56:45;;;;;;;4.80;4.20;;;;;;;23.36;65.57;98771.27;81627;1298;3012669;-67
2023/07/14 16:59:13;;;;;;;5.50;3.90;;;;;;;23.24;65.67;98777.73;79530;1295;3014067;-67
2023/07/14 17:01:41;;;;;;;5.30;4.30;;;;;;;23.20;65.87;98775.07;78272;1295;3050293;-65
2023/07/14 17:04:20;;;;;;;5.50;4.20;;;;;;;23.08;66.33;98769.21;79325;1295;3012701;-65
2023/07/14 17:06:47;;;;;;;6.90;4.40;;;;;;;23.07;66.35;98781.27;78167;1300;3054298;-67
2023/07/14 17:09:20;;;;;;;6.00;5.00;;;;;;;22.96;66.63;98780.46;79414;1294;3018568;-68
2023/07/14 17:11:50;;;;;;;9.30;4.50;;;;;;;22.99;66.60;98779.45;78282;1298;3054215;-65
2023/07/14 17:14:20;;;;;;;5.20;4.00;;;;;;;22.91;66.62;98788.04;79488;1295;3013136;-66
2023/07/14 17:16:49;;;;;;;6.00;4.40;;;;;;;22.90;66.82;98788.27;78087;1295;3058015;-68
2023/07/14 17:19:18;;;;;;;5.60;4.20;;;;;;;22.79;66.93;98798.61;79437;1294;3019158;-66
2023/07/14 17:21:48;;;;;;;5.80;4.30;;;;;;;22.70;67.42;98792.61;79363;1300;3012407;-65
2023/07/14 17:24:16;;;;;;;6.10;4.50;;;;;;;22.64;67.64;98800.09;78187;1300;3050636;-65
2023/07/14 17:26:43;;;;;;;5.10;4.10;;;;;;;22.59;67.89;98803.45;79508;1295;3013137;-67
2023/07/14 17:29:35;;;;;;;5.50;4.70;;;;;;;22.58;67.79;98797.13;79386;1299;3011781;-65
2023/07/14 17:32:05;;;;;;;5.40;4.00;;;;;;;22.64;67.54;98797.29;78213;1300;3056935;-69
2023/07/14 17:34:32;;;;;;;7.00;4.40;;;;;;;22.55;67.79;98808.84;79716;1300;3013055;-69
2023/07/14 17:36:59;;;;;;;6.70;4.40;;;;;;;22.49;67.92;98813.70;79561;1295;3011879;-73
2023/07/14 17:39:27;;;;;;;6.00;4.50;;;;;;;22.48;68.32;98812.44;78232;1297;3050784;-65
2023/07/14 17:41:54;;;;;;;8.40;4.30;;;;;;;22.43;68.78;98812.96;79526;1294;3013008;-65
2023/07/14 17:44:25;;;;;;;7.30;4.60;;;;;;;22.37;68.94;98814.40;79566;1295;3011913;-64
2023/07/14 17:46:53;;;;;;;4.80;4.00;;;;;;;22.38;69.01;98815.95;78250;1300;3055336;-69
2023/07/14 17:49:21;;;;;;;4.70;4.20;;;;;;;22.37;68.74;98821.17;79489;1295;3012932;-65
2023/07/14 17:51:49;;;;;;;4.80;3.90;;;;;;;22.29;68.84;98824.30;79462;1299;3013516;-64
2023/07/14 17:54:26;;;;;;;6.40;4.10;;;;;;;22.16;68.92;98824.17;78149;1300;3051626;-70
2023/07/14 17:56:54;;;;;;;5.40;4.00;;;;;;;22.16;68.80;98825.31;78251;1297;3054136;-66
2023/07/14 17:59:24;;;;;;;6.00;4.00;;;;;;;22.15;68.71;98833.98;79555;1294;3013933;-68
2023/07/14 18:02:04;;;;;;;5.70;3.90;;;;;;;22.11;68.53;98825.86;78306;1295;3054838;-66
2023/07/14 18:04:32;;;;;;;5.90;4.10;;;;;;;22.09;68.51;98828.92;78276;1295;3049327;-69
2023/07/14 18:07:08;;;;;;;7.10;4.40;;;;;;;22.02;68.60;98832.48;79568;1294;3011769;-67
2023/07/14 18:09:36;;;;;;;4.20;3.60;;;;;;;22.01;68.83;98835.67;78392;1297;3051282;-65
2023/07/14 18:12:05;;;;;;;7.60;3.90;;;;;;;21.95;69.07;98830.27;79763;1298;3013178;-63
2023/07/14 18:14:32;;;;;;;3.40;2.80;;;;;;;21.99;68.92;98832.14;79579;1295;3011786;-65
2023/07/14 18:17:04;;;;;;;6.80;3.40;;;;;;;22.55;67.60;98837.09;78475;1294;3052194;-65
2023/07/14 18:19:32;;;;;;;6.80;3.30;;;;;;;23.05;66.01;98836.89;79594;1295;3013533;-65
2023/07/14 18:21:59;;;;;;;5.10;3.90;;;;;;;23.02;65.48;98847.70;79544;1295;3011882;-66
2023/07/14 18:24:28;;;;;;;7.10;3.90;;;;;;;22.84;65.92;98848.35;78636;1297;3051088;-63
2023/07/14 18:26:55;;;;;;;4.90;3.70;;;;;;;22.67;66.45;98849.95;79383;1297;3013207;-66
2023/07/14 18:29:22;;;;;;;8.90;4.00;;;;;;;22.50;67.04;98854.43;79569;1297;3013692;-64
2023/07/14 18:31:50;;;;;;;5.90;3.90;;;;;;;22.44;67.36;98853.02;78266;1298;3050666;-65
2023/07/14 18:34:19;;;;;;;7.90;3.70;;;;;;;22.37;67.55;98854.02;79529;1297;3012761;-63
2023/07/14 18:36:46;;;;;;;5.10;3.60;;;;;;;22.28;67.95;98848.12;79585;1294;3011580;-66
2023/07/14 18:39:17;;;;;;;4.30;3.80;;;;;;;22.25;67.78;98846.15;78284;1297;3050623;-66
2023/07/14 18:41:48;;;;;;;4.80;4.00;;;;;;;22.24;67.92;98846.96;79506;1297;3013139;-63
2023/07/14 18:44:16;;;;;;;8.00;4.30;;;;;;;22.16;68.25;98851.48;78386;1297;3051398;-65
2023/07/14 18:46:43;;;;;;;6.40;4.10;;;;;;;22.17;68.05;98853.23;79338;1300;3013555;-65